Time;durP1;ratioP1;P1;durP2;ratioP2;P2;SDS_P1;SDS_P2;PMS_P1;PMS_P2;Temp;Humidity;BMP_temperature;BMP_pressure;BME280_temperature;BME280_humidity;BME280_pressure;Samples;Min_cycle;Max_cycle;Signal;HPM_P1;HPM_P2
2021/12/12 00:01:30;;;;;;;11.53;6.20;;;;;;;12.30;100.00;98105.53;5050253;28;20204;-66
2021/12/12 00:04:10;;;;;;;6.20;4.23;;;;;;;12.26;100.00;98115.16;5050013;28;20200;-67
2021/12/12 00:06:39;;;;;;;16.70;4.67;;;;;;;12.24;100.00;98122.16;5049311;28;20601;-66
2021/12/12 00:09:09;;;;;;;7.73;3.83;;;;;;;12.16;100.00;98113.22;5049029;28;20215;-66
2021/12/12 00:11:37;;;;;;;7.20;4.07;;;;;;;12.16;100.00;98124.31;5048051;28;20207;-67
2021/12/12 00:14:10;;;;;;;12.13;4.10;;;;;;;12.09;100.00;98102.44;5048516;28;20706;-67
2021/12/12 00:16:37;;;;;;;21.10;6.37;;;;;;;12.09;100.00;98076.75;5050139;28;20207;-64
2021/12/12 00:19:06;;;;;;;14.30;7.50;;;;;;;12.09;100.00;98025.38;5050443;28;20207;-66
2021/12/12 00:21:34;;;;;;;5.17;4.63;;;;;;;12.10;100.00;98006.50;5051699;28;20205;-64
2021/12/12 00:24:02;;;;;;;15.77;5.80;;;;;;;12.13;100.00;97987.50;5051657;28;20247;-65
2021/12/12 00:26:29;;;;;;;13.00;6.37;;;;;;;12.09;100.00;97967.16;5051650;28;20200;-67
2021/12/12 00:28:56;;;;;;;10.97;5.23;;;;;;;12.04;100.00;97924.69;5051399;28;20201;-67
2021/12/12 00:31:25;;;;;;;6.87;3.87;;;;;;;12.09;100.00;97963.75;5051141;28;20188;-67
2021/12/12 00:33:56;;;;;;;12.87;4.27;;;;;;;12.04;100.00;97996.59;5051169;28;20221;-67
2021/12/12 00:36:24;;;;;;;9.63;3.37;;;;;;;12.12;100.00;98017.50;5051440;28;20254;-66
2021/12/12 00:38:54;;;;;;;10.73;3.23;;;;;;;12.09;100.00;97999.72;5052406;28;20676;-66
2021/12/12 00:41:27;;;;;;;33.27;11.50;;;;;;;12.04;100.00;97992.28;5053044;28;20197;-67
2021/12/12 00:43:56;;;;;;;12.73;5.60;;;;;;;12.00;100.00;97995.13;5053224;28;20197;-66
2021/12/12 00:46:25;;;;;;;7.13;3.70;;;;;;;12.04;100.00;98012.84;5052331;28;20204;-66
2021/12/12 00:48:54;;;;;;;7.57;4.17;;;;;;;12.03;100.00;98024.00;5052479;28;20205;-67
2021/12/12 00:51:27;;;;;;;9.50;3.30;;;;;;;12.06;100.00;98041.81;5052678;28;20216;-67
2021/12/12 00:53:55;;;;;;;25.43;10.10;;;;;;;12.03;100.00;98056.56;5049800;28;20225;-65
2021/12/12 00:56:22;;;;;;;34.83;15.23;;;;;;;11.97;100.00;98062.06;5052927;28;20204;-65
2021/12/12 00:58:48;;;;;;;27.10;12.70;;;;;;;12.01;100.00;98058.41;5053001;28;20192;-65
2021/12/12 01:01:22;;;;;;;38.60;14.30;;;;;;;11.92;100.00;98061.50;5052595;28;20205;-66
2021/12/12 01:03:53;;;;;;;36.97;11.00;;;;;;;11.91;100.00;98059.84;5052963;28;20197;-67
2021/12/12 01:06:22;;;;;;;20.47;8.07;;;;;;;12.00;100.00;98080.69;5052748;28;20193;-67
2021/12/12 01:08:50;;;;;;;5.03;4.50;;;;;;;12.05;100.00;98091.53;5052948;28;20205;-67
2021/12/12 01:11:21;;;;;;;6.67;4.10;;;;;;;11.98;100.00;98079.13;5052564;28;20201;-67
2021/12/12 01:13:49;;;;;;;18.90;5.07;;;;;;;11.98;100.00;98074.00;5052620;28;20221;-67
2021/12/12 01:16:21;;;;;;;8.37;3.90;;;;;;;11.99;100.00;98091.03;5052735;28;20227;-67
2021/12/12 01:18:54;;;;;;;8.13;3.80;;;;;;;12.00;100.00;98108.94;5052669;28;20207;-67
2021/12/12 01:21:27;;;;;;;6.83;3.80;;;;;;;12.00;100.00;98116.66;5052588;28;20197;-67
2021/12/12 01:23:58;;;;;;;10.13;3.70;;;;;;;12.05;100.00;98121.53;5052337;28;20219;-67
2021/12/12 01:26:27;;;;;;;8.60;2.30;;;;;;;11.88;100.00;98119.06;5052811;28;20236;-67
2021/12/12 01:28:55;;;;;;;3.33;3.00;;;;;;;12.04;100.00;98132.72;5051241;28;20201;-67
2021/12/12 01:31:29;;;;;;;3.53;2.60;;;;;;;12.04;100.00;98137.84;5052442;28;20585;-67
2021/12/12 01:34:09;;;;;;;6.50;2.40;;;;;;;12.08;100.00;98136.78;5052427;28;20216;-67
2021/12/12 01:36:47;;;;;;;3.73;2.20;;;;;;;12.09;100.00;98143.53;5051932;28;20200;-67
2021/12/12 01:39:18;;;;;;;2.77;1.93;;;;;;;12.06;100.00;98159.97;5052205;28;20231;-65
2021/12/12 01:41:51;;;;;;;6.13;2.10;;;;;;;11.99;100.00;98139.84;5051852;28;20203;-66
2021/12/12 01:44:23;;;;;;;4.07;2.97;;;;;;;11.98;100.00;98136.47;5052179;28;20201;-67
2021/12/12 01:46:58;;;;;;;6.77;3.17;;;;;;;11.94;100.00;98134.13;5048194;28;20340;-66
2021/12/12 01:49:28;;;;;;;11.63;3.47;;;;;;;11.95;100.00;98140.94;5052311;28;20204;-67
2021/12/12 01:51:56;;;;;;;6.30;4.73;;;;;;;11.90;100.00;98142.91;5051939;28;20216;-67
2021/12/12 01:54:27;;;;;;;7.47;5.50;;;;;;;11.88;100.00;98144.75;5051913;28;20244;-67
2021/12/12 01:56:59;;;;;;;7.17;5.53;;;;;;;11.94;100.00;98150.38;5050986;28;20208;-67
2021/12/12 01:59:29;;;;;;;9.97;5.00;;;;;;;11.97;100.00;98155.34;5052102;28;20193;-67
2021/12/12 02:02:02;;;;;;;7.33;5.23;;;;;;;11.99;100.00;98152.66;5051939;28;20687;-67
2021/12/12 02:04:34;;;;;;;5.00;4.50;;;;;;;11.99;100.00;98157.81;5051737;28;20200;-67
2021/12/12 02:07:02;;;;;;;6.77;4.60;;;;;;;11.99;100.00;98152.66;5050952;28;20212;-67
2021/12/12 02:09:30;;;;;;;4.53;4.17;;;;;;;11.89;100.00;98156.69;5051793;28;20602;-67
2021/12/12 02:11:59;;;;;;;4.20;3.77;;;;;;;11.91;100.00;98168.53;5051145;28;20204;-67
2021/12/12 02:14:29;;;;;;;3.10;2.90;;;;;;;11.90;100.00;98174.56;5050515;28;20581;-67
2021/12/12 02:16:59;;;;;;;4.40;4.00;;;;;;;11.87;100.00;98173.91;5050101;28;20212;-67
2021/12/12 02:19:34;;;;;;;11.33;7.20;;;;;;;11.83;100.00;98192.94;5049606;28;20201;-67
2021/12/12 02:22:28;;;;;;;3.93;3.63;;;;;;;11.53;100.00;98185.94;5049074;28;20277;-66
2021/12/12 02:35:54;;;;;;;2.07;1.87;;;;;;;11.46;100.00;98178.69;5049109;28;20199;-67
2021/12/12 02:38:27;;;;;;;2.80;1.97;;;;;;;11.45;100.00;98177.84;5048764;28;20200;-67
2021/12/12 02:40:56;;;;;;;2.40;2.30;;;;;;;11.49;100.00;98170.81;5048466;28;20200;-67
2021/12/12 02:43:27;;;;;;;4.50;1.97;;;;;;;11.55;100.00;98173.06;5048791;28;20201;-67
2021/12/12 02:45:57;;;;;;;4.73;2.77;;;;;;;11.44;100.00;98171.06;5048695;28;20703;-67
2021/12/12 02:48:28;;;;;;;2.53;2.00;;;;;;;11.42;100.00;98177.19;5049903;28;20207;-67
2021/12/12 02:50:57;;;;;;;2.20;2.00;;;;;;;11.43;100.00;98181.41;5051003;28;20564;-67
2021/12/12 02:53:29;;;;;;;1.87;1.77;;;;;;;11.46;100.00;98174.38;5050903;28;20580;-67
2021/12/12 02:55:59;;;;;;;5.03;1.50;;;;;;;11.51;100.00;98181.81;5050851;28;20212;-67
2021/12/12 02:58:27;;;;;;;1.73;1.63;;;;;;;11.43;100.00;98187.38;5051175;28;20692;-67
2021/12/12 03:01:00;;;;;;;4.90;1.97;;;;;;;11.42;100.00;98188.28;5050736;28;20205;-67
2021/12/12 03:03:29;;;;;;;2.53;2.10;;;;;;;11.41;100.00;98196.03;5050707;28;20196;-67
2021/12/12 03:05:56;;;;;;;2.43;1.80;;;;;;;11.35;100.00;98201.50;5050595;28;20228;-67
2021/12/12 03:08:24;;;;;;;2.80;2.10;;;;;;;11.25;100.00;98206.28;5050507;28;20223;-67
2021/12/12 03:10:54;;;;;;;3.03;1.97;;;;;;;11.25;100.00;98203.72;5050872;28;20200;-67
2021/12/12 03:13:24;;;;;;;4.57;2.17;;;;;;;11.21;100.00;98212.47;5050540;28;20196;-67
2021/12/12 03:15:52;;;;;;;2.27;2.17;;;;;;;11.21;100.00;98217.59;5050732;28;20221;-67
2021/12/12 03:18:24;;;;;;;2.70;2.23;;;;;;;11.18;100.00;98225.44;5050407;28;20556;-67
2021/12/12 03:20:56;;;;;;;3.37;2.30;;;;;;;11.12;100.00;98215.50;5050863;28;20201;-67
2021/12/12 03:23:26;;;;;;;2.40;2.20;;;;;;;11.16;100.00;98221.31;5050300;28;20200;-67
2021/12/12 03:25:59;;;;;;;2.67;2.47;;;;;;;11.14;100.00;98228.28;5050677;28;20225;-67
2021/12/12 03:28:28;;;;;;;2.53;2.20;;;;;;;11.10;100.00;98240.41;5050249;28;20208;-67
2021/12/12 03:30:59;;;;;;;4.40;3.07;;;;;;;10.98;100.00;98249.56;5050770;28;20585;-67
2021/12/12 03:33:29;;;;;;;4.47;3.70;;;;;;;10.84;100.00;98256.28;5050079;28;20670;-66
2021/12/12 03:35:59;;;;;;;5.10;4.70;;;;;;;10.66;100.00;98264.88;5050476;28;20208;-67
2021/12/12 03:38:28;;;;;;;4.77;4.30;;;;;;;10.67;100.00;98262.22;5049568;28;20200;-67
2021/12/12 03:40:59;;;;;;;3.17;2.97;;;;;;;10.69;100.00;98267.28;5050395;28;20258;-67
2021/12/12 03:43:26;;;;;;;5.80;4.00;;;;;;;10.56;100.00;98276.47;5049475;28;20204;-67
2021/12/12 03:45:54;;;;;;;10.40;6.93;;;;;;;10.34;100.00;98277.47;5050207;28;20211;-67
2021/12/12 03:48:27;;;;;;;6.67;5.57;;;;;;;10.42;100.00;98295.03;5050668;28;20197;-66
2021/12/12 03:51:00;;;;;;;14.03;6.67;;;;;;;10.24;100.00;98291.59;5051188;28;20204;-67
2021/12/12 03:53:28;;;;;;;4.80;4.33;;;;;;;10.07;100.00;98294.09;5053939;28;20201;-66
2021/12/12 03:55:58;;;;;;;5.63;4.63;;;;;;;10.07;100.00;98294.09;5054079;28;20224;-66
2021/12/12 03:58:25;;;;;;;4.77;4.37;;;;;;;10.08;100.00;98305.97;5054227;28;20676;-66
2021/12/12 04:00:57;;;;;;;4.30;4.00;;;;;;;10.17;100.00;98309.91;5054087;28;20200;-67
2021/12/12 04:03:25;;;;;;;5.77;4.20;;;;;;;10.19;100.00;98302.97;5052251;28;20208;-66
2021/12/12 04:05:54;;;;;;;7.60;3.40;;;;;;;10.25;100.00;98313.75;5053918;28;20677;-66
2021/12/12 04:08:26;;;;;;;7.73;3.10;;;;;;;10.30;100.00;98306.72;5053908;28;20203;-66
2021/12/12 04:10:53;;;;;;;3.97;3.00;;;;;;;10.36;100.00;98308.16;5053786;28;20596;-67
2021/12/12 04:13:21;;;;;;;4.63;3.43;;;;;;;10.34;100.00;98300.50;5053730;28;20203;-67
2021/12/12 04:15:51;;;;;;;4.00;3.17;;;;;;;10.34;100.00;98308.19;5052368;28;20216;-67
2021/12/12 04:18:21;;;;;;;5.13;4.63;;;;;;;10.32;100.00;98324.56;5053575;28;20201;-66
2021/12/12 04:20:49;;;;;;;7.83;3.70;;;;;;;10.25;100.00;98318.88;5053500;28;20684;-66
2021/12/12 04:23:17;;;;;;;3.50;3.20;;;;;;;10.22;100.00;98316.47;5052762;28;20223;-66
2021/12/12 04:25:44;;;;;;;4.97;4.03;;;;;;;10.21;100.00;98312.22;5051908;28;20227;-67
2021/12/12 04:28:11;;;;;;;6.00;4.77;;;;;;;10.20;100.00;98310.59;5051557;28;20200;-66
2021/12/12 04:30:40;;;;;;;7.13;4.23;;;;;;;10.01;100.00;98314.84;5051684;28;20197;-66
2021/12/12 04:33:07;;;;;;;4.33;3.20;;;;;;;9.90;100.00;98323.00;5050818;28;20193;-66
2021/12/12 04:35:35;;;;;;;6.80;5.00;;;;;;;9.68;100.00;98322.28;5048286;28;20561;-65
2021/12/12 04:38:03;;;;;;;4.13;3.83;;;;;;;9.68;100.00;98324.03;5050119;28;20236;-66
2021/12/12 04:40:34;;;;;;;2.53;2.43;;;;;;;9.72;100.00;98315.31;5050290;28;20211;-66
2021/12/12 04:43:02;;;;;;;3.40;3.10;;;;;;;9.69;100.00;98339.31;5051278;28;20584;-67
2021/12/12 04:45:42;;;;;;;3.77;3.30;;;;;;;9.68;100.00;98344.50;5051374;28;20205;-66
2021/12/12 04:51:09;;;;;;;5.70;5.13;;;;;;;9.44;100.00;98329.28;5051122;28;20686;-66
2021/12/12 04:53:43;;;;;;;5.43;4.70;;;;;;;9.56;100.00;98348.41;5051145;28;20193;-67
2021/12/12 04:56:17;;;;;;;6.77;6.17;;;;;;;9.45;100.00;98356.53;5050529;28;20497;-66
2021/12/12 04:58:49;;;;;;;6.50;5.83;;;;;;;9.42;100.00;98372.00;5052857;28;20207;-66
2021/12/12 05:01:21;;;;;;;6.33;5.17;;;;;;;9.55;100.00;98381.72;5053016;28;20580;-66
2021/12/12 05:03:55;;;;;;;2.43;2.23;;;;;;;9.45;100.00;98371.88;5052878;28;20204;-65
2021/12/12 05:06:27;;;;;;;3.30;3.13;;;;;;;9.41;100.00;98390.81;5052919;28;20203;-66
2021/12/12 05:09:00;;;;;;;2.27;2.17;;;;;;;9.37;100.00;98399.50;5052517;28;20232;-66
2021/12/12 05:11:35;;;;;;;3.80;2.53;;;;;;;9.30;100.00;98393.00;5052643;28;20212;-66
2021/12/12 05:14:09;;;;;;;8.83;7.17;;;;;;;9.32;100.00;98393.75;5052386;28;20196;-66
2021/12/12 05:16:41;;;;;;;5.53;4.17;;;;;;;9.35;100.00;98391.06;5052743;28;20192;-66
2021/12/12 05:19:12;;;;;;;3.47;3.27;;;;;;;9.38;100.00;98398.59;5052326;28;21033;-66
2021/12/12 05:21:44;;;;;;;5.03;4.63;;;;;;;9.28;100.00;98378.59;5052613;28;20203;-66
2021/12/12 05:24:14;;;;;;;5.13;4.40;;;;;;;9.23;100.00;98401.81;5052306;28;20632;-66
2021/12/12 05:26:45;;;;;;;5.87;3.23;;;;;;;9.31;100.00;98409.16;5052675;28;20688;-66
2021/12/12 05:29:18;;;;;;;3.20;2.90;;;;;;;9.31;100.00;98429.59;5052247;28;20218;-66
2021/12/12 05:31:47;;;;;;;5.03;2.97;;;;;;;9.23;100.00;98422.25;5052722;28;20199;-66
2021/12/12 05:34:18;;;;;;;2.80;2.50;;;;;;;9.30;100.00;98443.31;5051029;28;20232;-66
2021/12/12 05:36:46;;;;;;;2.97;2.57;;;;;;;9.35;100.00;98451.59;5051636;28;20207;-66
2021/12/12 05:39:14;;;;;;;3.77;3.40;;;;;;;9.41;100.00;98447.06;5050883;28;20212;-66
2021/12/12 05:41:42;;;;;;;4.27;3.83;;;;;;;9.48;100.00;98448.50;5052228;28;20210;-66
2021/12/12 05:44:09;;;;;;;4.70;4.30;;;;;;;9.53;100.00;98450.03;5051907;28;20215;-66
2021/12/12 05:46:36;;;;;;;5.17;4.70;;;;;;;9.54;100.00;98454.25;5051408;28;20219;-66
2021/12/12 05:49:06;;;;;;;11.93;3.70;;;;;;;9.35;100.00;98451.59;5051874;28;20707;-66
2021/12/12 05:51:35;;;;;;;4.50;3.47;;;;;;;9.24;100.00;98464.81;5051917;28;20258;-67
2021/12/12 05:54:05;;;;;;;11.23;4.90;;;;;;;9.31;100.00;98461.13;5051897;28;20673;-66
2021/12/12 05:56:36;;;;;;;4.90;4.30;;;;;;;9.41;100.00;98467.53;5051690;28;20216;-66
2021/12/12 05:59:04;;;;;;;7.10;5.50;;;;;;;9.48;100.00;98474.09;5051721;28;20219;-66
2021/12/12 06:01:32;;;;;;;11.37;7.17;;;;;;;9.48;100.00;98479.19;5051875;28;20657;-67
2021/12/12 06:04:00;;;;;;;6.93;5.83;;;;;;;9.41;100.00;98485.44;5051794;28;20208;-66
2021/12/12 06:06:30;;;;;;;11.00;6.83;;;;;;;9.43;100.00;98482.84;5051678;28;20700;-66
2021/12/12 06:09:00;;;;;;;11.77;8.90;;;;;;;9.44;100.00;98490.44;5051761;28;20207;-66
2021/12/12 06:11:29;;;;;;;25.43;12.63;;;;;;;9.41;100.00;98482.06;5051433;28;20653;-66
2021/12/12 06:13:57;;;;;;;24.43;17.27;;;;;;;9.35;100.00;98488.25;5051149;28;20694;-66
2021/12/12 06:16:25;;;;;;;25.03;16.40;;;;;;;9.38;100.00;98498.34;5050151;28;20225;-66
2021/12/12 06:18:58;;;;;;;20.60;13.00;;;;;;;9.37;100.00;98498.44;5050961;28;20282;-66
2021/12/12 06:21:26;;;;;;;34.47;17.67;;;;;;;9.33;100.00;98504.56;5051013;28;20197;-66
2021/12/12 06:23:54;;;;;;;39.37;22.50;;;;;;;9.41;100.00;98523.81;5050630;28;20197;-66
2021/12/12 06:26:23;;;;;;;8.20;7.40;;;;;;;9.30;100.00;98525.97;5051255;28;20208;-66
2021/12/12 06:28:51;;;;;;;3.37;3.17;;;;;;;9.27;100.00;98536.28;5051008;28;20250;-66
2021/12/12 06:31:19;;;;;;;3.47;3.17;;;;;;;9.33;100.00;98543.75;5051228;28;20550;-66
2021/12/12 06:33:46;;;;;;;3.53;3.23;;;;;;;9.23;100.00;98555.22;5050320;28;20695;-66
2021/12/12 06:36:15;;;;;;;3.13;2.93;;;;;;;9.33;100.00;98556.53;5050506;28;20216;-66
2021/12/12 06:38:47;;;;;;;8.97;3.43;;;;;;;9.32;100.00;98551.47;5050700;28;20216;-66
2021/12/12 06:41:15;;;;;;;3.47;3.27;;;;;;;9.38;100.00;98566.59;5051319;28;20193;-66
2021/12/12 06:43:44;;;;;;;5.83;3.90;;;;;;;9.37;100.00;98560.63;5050646;28;20197;-66
2021/12/12 06:46:11;;;;;;;6.73;4.03;;;;;;;9.43;100.00;98573.19;5050675;28;20193;-66
2021/12/12 06:48:38;;;;;;;5.03;4.63;;;;;;;9.42;100.00;98566.41;5050745;28;20196;-66
2021/12/12 06:51:06;;;;;;;4.77;3.77;;;;;;;9.46;100.00;98573.09;5050542;28;20207;-66
2021/12/12 06:53:36;;;;;;;4.57;3.83;;;;;;;9.37;100.00;98572.63;5050763;28;20220;-66
2021/12/12 06:56:04;;;;;;;5.07;3.90;;;;;;;9.48;100.00;98585.81;5051103;28;20692;-66
2021/12/12 06:58:34;;;;;;;7.67;5.70;;;;;;;9.43;100.00;98577.50;5050779;28;20692;-65
2021/12/12 07:01:08;;;;;;;6.17;4.40;;;;;;;9.47;100.00;98567.06;5050629;28;20208;-66
2021/12/12 07:03:35;;;;;;;6.27;5.07;;;;;;;9.50;100.00;98578.88;5050434;28;20196;-66
2021/12/12 07:06:03;;;;;;;5.00;4.53;;;;;;;9.56;100.00;98575.28;5050458;28;20192;-66
2021/12/12 07:08:30;;;;;;;6.77;4.20;;;;;;;9.58;100.00;98576.03;5050807;28;20596;-66
2021/12/12 07:10:57;;;;;;;24.50;9.07;;;;;;;9.60;100.00;98579.34;5050261;28;20201;-64
2021/12/12 07:13:24;;;;;;;4.80;4.40;;;;;;;9.67;100.00;98581.63;5050841;28;20208;-66
2021/12/12 07:15:55;;;;;;;5.07;4.67;;;;;;;9.71;100.00;98584.91;5050212;28;20224;-65
2021/12/12 07:18:27;;;;;;;4.47;4.07;;;;;;;9.77;100.00;98592.34;5050518;28;20673;-65
2021/12/12 07:20:58;;;;;;;2.77;2.67;;;;;;;9.81;100.00;98586.22;5050745;28;20200;-66
2021/12/12 07:23:26;;;;;;;1.80;1.70;;;;;;;9.77;100.00;98576.97;5050861;28;20197;-66
2021/12/12 07:25:53;;;;;;;1.60;1.50;;;;;;;9.83;100.00;98592.09;5049898;28;20220;-64
2021/12/12 07:28:21;;;;;;;1.77;1.67;;;;;;;9.89;100.00;98602.91;5047351;28;20208;-66
2021/12/12 07:30:48;;;;;;;2.57;1.67;;;;;;;9.95;100.00;98605.22;5045453;28;20661;-65
2021/12/12 07:33:15;;;;;;;1.67;1.57;;;;;;;10.09;100.00;98604.66;5046761;28;20209;-66
2021/12/12 07:35:45;;;;;;;2.03;1.93;;;;;;;10.17;100.00;98612.09;5048964;28;20227;-66
2021/12/12 07:38:14;;;;;;;6.70;1.87;;;;;;;10.24;100.00;98606.63;5048176;28;20211;-65
2021/12/12 07:40:44;;;;;;;1.90;1.70;;;;;;;10.30;100.00;98619.22;5050247;28;20208;-64
2021/12/12 07:43:11;;;;;;;5.77;1.40;;;;;;;10.39;100.00;98618.81;5048772;28;20200;-66
2021/12/12 07:45:39;;;;;;;2.83;2.03;;;;;;;10.48;100.00;98626.13;5049789;28;20222;-66
2021/12/12 07:48:09;;;;;;;5.07;3.13;;;;;;;10.58;100.00;98634.25;5049202;28;20292;-66
2021/12/12 07:50:36;;;;;;;4.07;2.63;;;;;;;10.68;100.00;98642.38;5047630;28;20606;-66
2021/12/12 07:53:06;;;;;;;3.00;2.80;;;;;;;10.83;100.00;98651.97;5046876;28;20450;-63
2021/12/12 07:55:34;;;;;;;1.90;1.73;;;;;;;10.97;100.00;98659.91;5049330;28;20224;-63
2021/12/12 07:58:05;;;;;;;1.77;1.67;;;;;;;11.08;100.00;98665.41;5049992;28;20295;-63
2021/12/12 08:00:33;;;;;;;3.27;1.50;;;;;;;11.17;100.00;98672.69;5050024;28;20208;-63
2021/12/12 08:03:01;;;;;;;2.40;1.70;;;;;;;11.15;100.00;98661.66;5051489;28;20196;-63
2021/12/12 08:05:29;;;;;;;8.00;2.70;;;;;;;11.28;100.00;98675.59;5050992;28;20210;-63
2021/12/12 08:07:58;;;;;;;2.53;2.33;;;;;;;11.44;100.00;98674.00;5051416;28;20205;-63
2021/12/12 08:10:27;;;;;;;4.17;2.67;;;;;;;11.48;100.00;98690.94;5049763;28;20211;-63
2021/12/12 08:12:55;;;;;;;6.10;2.67;;;;;;;11.59;100.00;98693.03;5045737;28;20204;-63
2021/12/12 08:15:22;;;;;;;2.20;1.53;;;;;;;11.66;100.00;98697.00;5050654;28;20216;-64
2021/12/12 08:17:50;;;;;;;2.30;2.20;;;;;;;11.73;100.00;98702.72;5051061;28;20240;-63
2021/12/12 08:20:18;;;;;;;3.97;3.07;;;;;;;11.78;100.00;98698.19;5046870;28;20196;-63
2021/12/12 08:22:48;;;;;;;2.57;2.40;;;;;;;11.87;100.00;98708.03;5048274;28;20274;-63
2021/12/12 08:25:17;;;;;;;3.47;2.07;;;;;;;11.98;100.00;98711.78;5047255;28;20239;-63
2021/12/12 08:27:46;;;;;;;2.70;2.07;;;;;;;12.08;100.00;98717.31;5049353;28;20212;-63
2021/12/12 08:30:16;;;;;;;4.53;1.90;;;;;;;12.23;100.00;98714.00;5047107;28;20203;-63
2021/12/12 08:32:44;;;;;;;3.23;2.80;;;;;;;12.36;100.00;98721.97;5050585;28;20204;-64
2021/12/12 08:35:13;;;;;;;2.87;2.43;;;;;;;12.36;100.00;98717.66;5052359;28;20207;-63
2021/12/12 08:37:41;;;;;;;3.60;2.70;;;;;;;12.38;100.00;98715.84;5052632;28;20577;-63
2021/12/12 08:40:11;;;;;;;2.83;2.63;;;;;;;12.38;100.00;98718.41;5053572;28;20197;-64
2021/12/12 08:42:38;;;;;;;19.27;11.77;;;;;;;12.50;100.00;98710.09;5053210;28;20201;-64
2021/12/12 08:45:11;;;;;;;10.67;9.73;;;;;;;12.47;100.00;98705.09;5053216;28;20219;-63
2021/12/12 08:47:38;;;;;;;4.27;3.37;;;;;;;12.58;100.00;98717.44;5053008;28;20200;-64
2021/12/12 08:50:08;;;;;;;4.57;3.03;;;;;;;12.63;100.00;98715.50;5053190;28;20193;-64
2021/12/12 08:52:38;;;;;;;6.07;3.43;;;;;;;12.68;100.00;98734.09;5053283;28;20581;-64
2021/12/12 08:55:14;;;;;;;4.47;2.00;;;;;;;12.74;100.00;98735.53;5053394;28;20711;-63
2021/12/12 08:57:49;;;;;;;3.03;1.47;;;;;;;12.75;100.00;98735.47;5052748;28;20630;-64
2021/12/12 09:00:21;;;;;;;2.77;1.83;;;;;;;12.75;100.00;98744.91;5053002;28;20195;-64
2021/12/12 09:02:49;;;;;;;1.70;1.37;;;;;;;12.77;100.00;98753.38;5052956;28;20197;-64
2021/12/12 09:05:22;;;;;;;1.90;1.67;;;;;;;12.63;100.00;98749.72;5052957;28;20581;-64
2021/12/12 09:07:53;;;;;;;2.40;2.20;;;;;;;12.69;100.00;98742.66;5052745;28;20208;-64
2021/12/12 09:10:25;;;;;;;4.70;2.73;;;;;;;12.76;100.00;98752.56;5052910;28;20196;-64
2021/12/12 09:12:58;;;;;;;10.70;3.90;;;;;;;12.76;100.00;98747.41;5052454;28;20259;-63
2021/12/12 09:15:30;;;;;;;4.80;4.40;;;;;;;12.84;100.00;98749.59;5052968;28;20197;-64
2021/12/12 09:18:03;;;;;;;5.30;4.57;;;;;;;12.88;100.00;98758.84;5052669;28;20615;-63
2021/12/12 09:20:36;;;;;;;5.27;4.70;;;;;;;12.82;100.00;98766.84;5052628;28;20204;-63
2021/12/12 09:23:07;;;;;;;7.37;5.00;;;;;;;12.77;100.00;98753.38;5052476;28;20201;-64
2021/12/12 09:25:42;;;;;;;6.20;5.67;;;;;;;12.80;100.00;98766.06;5051671;28;20220;-64
2021/12/12 09:28:13;;;;;;;4.00;3.70;;;;;;;12.66;100.00;98760.78;5051002;28;20258;-64
2021/12/12 09:30:41;;;;;;;4.83;4.10;;;;;;;12.65;100.00;98762.53;5049080;28;20205;-64
2021/12/12 09:33:18;;;;;;;4.17;3.87;;;;;;;12.66;100.00;98765.94;5052036;28;20193;-64
2021/12/12 09:35:49;;;;;;;4.17;3.97;;;;;;;12.58;100.00;98763.72;5052135;28;20197;-64
2021/12/12 09:38:20;;;;;;;5.27;3.97;;;;;;;12.64;100.00;98758.28;5052301;28;20657;-64
2021/12/12 09:41:08;;;;;;;4.43;4.03;;;;;;;12.69;100.00;98761.47;5052382;28;20626;-64
2021/12/12 09:43:50;;;;;;;3.53;3.17;;;;;;;12.68;100.00;98764.94;5052362;28;20232;-64
2021/12/12 09:46:38;;;;;;;4.20;3.80;;;;;;;12.70;100.00;98762.31;5051873;28;20197;-63
2021/12/12 09:52:55;;;;;;;4.97;4.67;;;;;;;12.80;100.00;98760.94;5052125;28;20208;-64
2021/12/12 09:55:28;;;;;;;4.20;3.80;;;;;;;12.80;100.00;98760.94;5051846;28;20236;-64
2021/12/12 09:57:59;;;;;;;4.17;3.87;;;;;;;12.84;100.00;98765.88;5051663;28;20224;-64
2021/12/12 10:00:33;;;;;;;15.03;4.33;;;;;;;12.84;100.00;98772.75;5050733;28;20197;-64
2021/12/12 10:03:27;;;;;;;3.93;3.53;;;;;;;12.78;100.00;98770.47;5051621;28;20201;-64
2021/12/12 10:06:08;;;;;;;4.30;3.90;;;;;;;12.74;100.00;98776.66;5049385;28;20254;-64
2021/12/12 10:08:57;;;;;;;6.13;3.83;;;;;;;12.73;100.00;98780.16;5051180;28;20205;-64
2021/12/12 10:11:33;;;;;;;4.27;3.97;;;;;;;12.70;100.00;98785.47;5051509;28;20201;-64
2021/12/12 10:14:06;;;;;;;4.70;4.40;;;;;;;12.71;100.00;98781.97;5051407;28;20215;-64
2021/12/12 10:16:38;;;;;;;6.50;5.90;;;;;;;12.68;100.00;98774.41;5051224;28;20212;-64
2021/12/12 10:19:17;;;;;;;5.97;5.37;;;;;;;12.64;100.00;98771.97;5051498;28;20635;-64
2021/12/12 10:21:56;;;;;;;6.70;6.10;;;;;;;12.70;100.00;98777.75;5050812;28;20638;-63
2021/12/12 10:24:29;;;;;;;7.73;7.03;;;;;;;12.60;100.00;98778.16;5050616;28;20238;-64
2021/12/12 10:27:04;;;;;;;10.00;6.27;;;;;;;12.68;100.00;98795.81;5050602;28;20622;-64
2021/12/12 10:29:38;;;;;;;5.77;5.37;;;;;;;12.64;100.00;98784.84;5051168;28;20584;-64
2021/12/12 10:32:13;;;;;;;6.30;5.73;;;;;;;12.56;100.00;98786.97;5051313;28;20210;-64
2021/12/12 10:34:46;;;;;;;5.47;4.97;;;;;;;12.51;100.00;98794.03;5049787;28;20189;-64
2021/12/12 10:37:19;;;;;;;5.80;5.23;;;;;;;12.39;100.00;98789.50;5050974;28;20216;-64
2021/12/12 10:39:51;;;;;;;6.07;5.57;;;;;;;12.39;100.00;98794.63;5051172;28;20232;-64
2021/12/12 10:42:21;;;;;;;4.43;4.10;;;;;;;12.48;100.00;98786.47;5051105;28;20201;-64
2021/12/12 10:44:50;;;;;;;5.17;4.27;;;;;;;12.53;100.00;98775.97;5050922;28;20203;-64
2021/12/12 10:47:23;;;;;;;5.13;4.30;;;;;;;12.62;100.00;98771.22;5051081;28;20193;-64
2021/12/12 10:50:07;;;;;;;3.67;3.47;;;;;;;12.73;100.00;98772.44;5051105;28;20205;-64
2021/12/12 10:52:39;;;;;;;4.20;3.80;;;;;;;12.74;100.00;98768.94;5050764;28;20223;-64
2021/12/12 10:55:10;;;;;;;5.27;4.50;;;;;;;12.74;100.00;98763.81;5050724;28;20306;-64
2021/12/12 10:57:39;;;;;;;7.27;4.37;;;;;;;12.77;100.00;98779.94;5050494;28;20259;-64
2021/12/12 11:00:10;;;;;;;28.77;13.53;;;;;;;12.77;100.00;98787.63;5050939;28;20687;-64
2021/12/12 11:02:56;;;;;;;6.57;5.87;;;;;;;12.72;100.00;98781.06;5050557;28;20203;-64
2021/12/12 11:05:31;;;;;;;5.07;4.63;;;;;;;12.65;100.00;98788.25;5050620;28;20216;-64
2021/12/12 11:08:05;;;;;;;4.23;4.03;;;;;;;12.66;100.00;98781.38;5050919;28;20203;-64
2021/12/12 11:10:36;;;;;;;5.03;3.63;;;;;;;12.63;100.00;98780.59;5050641;28;20215;-64
2021/12/12 11:13:09;;;;;;;8.50;4.53;;;;;;;12.59;100.00;98791.13;5050563;28;20200;-64
2021/12/12 11:15:38;;;;;;;4.43;4.13;;;;;;;12.54;100.00;98788.75;5050409;28;20680;-64
2021/12/12 11:18:09;;;;;;;4.17;3.87;;;;;;;12.52;100.00;98790.56;5050609;28;20596;-64
2021/12/12 11:20:40;;;;;;;4.73;4.27;;;;;;;12.54;100.00;98793.88;5050513;28;20201;-64
2021/12/12 11:23:10;;;;;;;4.43;4.03;;;;;;;12.52;100.00;98800.84;5049905;28;20208;-64
2021/12/12 11:25:40;;;;;;;4.82;4.40;;;;;;;12.52;100.00;98800.84;5049253;28;20439;-67
2021/12/12 11:28:12;;;;;;;5.03;4.70;;;;;;;12.61;100.00;98804.72;5047713;28;20661;-67
2021/12/12 11:30:44;;;;;;;9.37;6.70;;;;;;;12.62;100.00;98807.22;5046100;28;20212;-67
2021/12/12 11:33:14;;;;;;;19.47;8.87;;;;;;;12.62;100.00;98802.09;5047621;28;20204;-67
2021/12/12 11:35:45;;;;;;;7.73;7.10;;;;;;;12.62;100.00;98804.66;5050049;28;20570;-67
2021/12/12 11:38:21;;;;;;;8.70;7.27;;;;;;;12.54;100.00;98804.16;5049674;28;20212;-66
2021/12/12 11:40:55;;;;;;;8.50;7.70;;;;;;;12.46;100.00;98790.88;5049321;28;20192;-67
2021/12/12 11:43:33;;;;;;;13.43;7.37;;;;;;;12.50;100.00;98802.66;5049915;28;20224;-67
2021/12/12 11:46:05;;;;;;;6.60;6.10;;;;;;;12.57;100.00;98804.03;5049508;28;20696;-67
2021/12/12 11:48:40;;;;;;;5.90;5.33;;;;;;;12.64;100.00;98795.13;5048995;28;20220;-67
2021/12/12 11:51:14;;;;;;;5.37;4.97;;;;;;;12.64;100.00;98789.97;5044915;28;20208;-67
2021/12/12 11:53:45;;;;;;;5.97;5.67;;;;;;;12.68;100.00;98794.97;5044784;28;20212;-67
2021/12/12 11:56:15;;;;;;;6.77;6.27;;;;;;;12.70;100.00;98799.13;5046320;28;20201;-67
2021/12/12 11:58:50;;;;;;;5.27;4.97;;;;;;;12.60;100.00;98791.03;5046430;28;20201;-67
2021/12/12 12:01:24;;;;;;;5.73;4.70;;;;;;;12.72;100.00;98799.06;5042553;28;20204;-67